Time;durP1;ratioP1;P1;durP2;ratioP2;P2;SDS_P1;SDS_P2;PMS_P1;PMS_P2;Temp;Humidity;BMP_temperature;BMP_pressure;BME280_temperature;BME280_humidity;BME280_pressure;Samples;Min_cycle;Max_cycle;Signal;HPM_P1;HPM_P2
2020/09/26 00:00:55;;;;;;;5.400001;4.8;;;;;;;7.29;100;93689.01;;;;
2020/09/26 00:01:55;;;;;;;5.400001;4.8;;;;;;;7.29;100;93689.01;;;;
2020/09/26 00:02:56;;;;;;;5.400001;4.8;;;;;;;7.29;100;93689.01;;;;
2020/09/26 00:03:56;;;;;;;5.400001;4.8;;;;;;;7.29;100;93689.01;;;;
2020/09/26 00:04:57;;;;;;;5.400001;4.8;;;;;;;7.29;100;93689.01;;;;
2020/09/26 00:05:57;;;;;;;5.400001;4.8;;;;;;;7.29;100;93689.01;;;;
2020/09/26 00:06:58;;;;;;;5.400001;4.8;;;;;;;7.29;100;93689.01;;;;
2020/09/26 00:07:58;;;;;;;5.400001;4.8;;;;;;;7.29;100;93689.01;;;;
2020/09/26 00:08:59;;;;;;;5.400001;4.8;;;;;;;7.29;100;93689.01;;;;
2020/09/26 00:09:59;;;;;;;6.05;5.450001;;;;;;;7.38;100;93677.26;;;;
2020/09/26 00:11:00;;;;;;;6.05;5.450001;;;;;;;7.38;100;93677.26;;;;
2020/09/26 00:12:00;;;;;;;6.05;5.450001;;;;;;;7.38;100;93677.26;;;;
2020/09/26 00:13:01;;;;;;;6.05;5.450001;;;;;;;7.38;100;93677.26;;;;
2020/09/26 00:14:01;;;;;;;6.05;5.450001;;;;;;;7.38;100;93677.26;;;;
2020/09/26 00:15:02;;;;;;;6.05;5.450001;;;;;;;7.38;100;93677.26;;;;
2020/09/26 00:16:02;;;;;;;6.05;5.450001;;;;;;;7.38;100;93677.26;;;;
2020/09/26 00:17:03;;;;;;;6.05;5.450001;;;;;;;7.38;100;93677.26;;;;
2020/09/26 00:18:03;;;;;;;6.05;5.450001;;;;;;;7.38;100;93677.26;;;;
2020/09/26 00:19:04;;;;;;;6.05;5.450001;;;;;;;7.38;100;93677.26;;;;
2020/09/26 00:20:04;;;;;;;6.05;5.450001;;;;;;;7.38;100;93677.26;;;;
2020/09/26 00:21:05;;;;;;;5.3;4.8;;;;;;;7.39;100;93661.45;;;;
2020/09/26 00:22:05;;;;;;;5.3;4.8;;;;;;;7.39;100;93661.45;;;;
2020/09/26 00:23:06;;;;;;;5.3;4.8;;;;;;;7.39;100;93661.45;;;;
2020/09/26 00:24:06;;;;;;;5.3;4.8;;;;;;;7.39;100;93661.45;;;;
2020/09/26 00:25:07;;;;;;;5.3;4.8;;;;;;;7.39;100;93661.45;;;;
2020/09/26 00:26:07;;;;;;;5.3;4.8;;;;;;;7.39;100;93661.45;;;;
2020/09/26 00:27:08;;;;;;;5.3;4.8;;;;;;;7.39;100;93661.45;;;;
2020/09/26 00:28:08;;;;;;;5.3;4.8;;;;;;;7.39;100;93661.45;;;;
2020/09/26 00:29:09;;;;;;;5.3;4.8;;;;;;;7.39;100;93661.45;;;;
2020/09/26 00:30:10;;;;;;;5.3;4.8;;;;;;;7.39;100;93661.45;;;;
2020/09/26 00:31:10;;;;;;;5.3;4.8;;;;;;;7.39;100;93661.45;;;;
2020/09/26 00:32:11;;;;;;;4.900001;4.5;;;;;;;7.43;100;93653.55;;;;
2020/09/26 00:33:11;;;;;;;4.900001;4.5;;;;;;;7.43;100;93653.55;;;;
2020/09/26 00:34:12;;;;;;;4.900001;4.5;;;;;;;7.43;100;93653.55;;;;
2020/09/26 00:35:12;;;;;;;4.900001;4.5;;;;;;;7.43;100;93653.55;;;;
2020/09/26 00:36:13;;;;;;;4.900001;4.5;;;;;;;7.43;100;93653.55;;;;
2020/09/26 00:37:13;;;;;;;4.900001;4.5;;;;;;;7.43;100;93653.55;;;;
2020/09/26 00:38:14;;;;;;;4.900001;4.5;;;;;;;7.43;100;93653.55;;;;
2020/09/26 00:39:14;;;;;;;4.900001;4.5;;;;;;;7.43;100;93653.55;;;;
2020/09/26 00:40:15;;;;;;;4.900001;4.5;;;;;;;7.43;100;93653.55;;;;
2020/09/26 00:41:16;;;;;;;4.900001;4.5;;;;;;;7.43;100;93653.55;;;;
2020/09/26 00:42:18;;;;;;;4.65;4.25;;;;;;;7.39;100;93636.36;;;;
2020/09/26 00:43:19;;;;;;;4.65;4.25;;;;;;;7.39;100;93636.36;;;;
2020/09/26 00:44:20;;;;;;;4.65;4.25;;;;;;;7.39;100;93636.36;;;;
2020/09/26 00:45:21;;;;;;;4.65;4.25;;;;;;;7.39;100;93636.36;;;;
2020/09/26 00:46:21;;;;;;;4.65;4.25;;;;;;;7.39;100;93636.36;;;;
2020/09/26 00:47:24;;;;;;;4.65;4.25;;;;;;;7.39;100;93636.36;;;;
2020/09/26 00:48:24;;;;;;;4.65;4.25;;;;;;;7.39;100;93636.36;;;;
2020/09/26 00:49:25;;;;;;;4.65;4.25;;;;;;;7.39;100;93636.36;;;;
2020/09/26 00:50:26;;;;;;;4.65;4.25;;;;;;;7.39;100;93636.36;;;;
2020/09/26 00:51:26;;;;;;;4.65;4.25;;;;;;;7.39;100;93636.36;;;;
2020/09/26 00:52:27;;;;;;;4.65;4.25;;;;;;;7.39;100;93636.36;;;;
2020/09/26 00:53:27;;;;;;;3.85;3.45;;;;;;;7.41;100;93652.47;;;;
2020/09/26 00:54:28;;;;;;;3.85;3.45;;;;;;;7.41;100;93652.47;;;;
2020/09/26 00:55:29;;;;;;;3.85;3.45;;;;;;;7.41;100;93652.47;;;;
2020/09/26 00:56:29;;;;;;;3.85;3.45;;;;;;;7.41;100;93652.47;;;;
2020/09/26 00:57:30;;;;;;;3.85;3.45;;;;;;;7.41;100;93652.47;;;;
2020/09/26 00:58:32;;;;;;;3.85;3.45;;;;;;;7.41;100;93652.47;;;;
2020/09/26 00:59:33;;;;;;;3.85;3.45;;;;;;;7.41;100;93652.47;;;;
2020/09/26 01:00:34;;;;;;;3.85;3.45;;;;;;;7.41;100;93652.47;;;;
2020/09/26 01:01:35;;;;;;;3.85;3.45;;;;;;;7.41;100;93652.47;;;;
2020/09/26 01:02:36;;;;;;;3.85;3.45;;;;;;;7.41;100;93652.47;;;;
2020/09/26 01:03:49;;;;;;;3.65;3.35;;;;;;;7.38;100;93657.14;;;;
2020/09/26 01:04:50;;;;;;;3.65;3.35;;;;;;;7.38;100;93657.14;;;;
2020/09/26 01:05:51;;;;;;;3.65;3.35;;;;;;;7.38;100;93657.14;;;;
2020/09/26 01:06:51;;;;;;;3.65;3.35;;;;;;;7.38;100;93657.14;;;;
2020/09/26 01:07:52;;;;;;;3.65;3.35;;;;;;;7.38;100;93657.14;;;;
2020/09/26 01:08:52;;;;;;;3.65;3.35;;;;;;;7.38;100;93657.14;;;;
2020/09/26 01:09:53;;;;;;;3.65;3.35;;;;;;;7.38;100;93657.14;;;;
2020/09/26 01:10:53;;;;;;;3.65;3.35;;;;;;;7.38;100;93657.14;;;;
2020/09/26 01:11:54;;;;;;;3.65;3.35;;;;;;;7.38;100;93657.14;;;;
2020/09/26 01:12:54;;;;;;;3.65;3.35;;;;;;;7.38;100;93657.14;;;;
2020/09/26 01:13:55;;;;;;;3.65;3.35;;;;;;;7.38;100;93657.14;;;;
2020/09/26 01:14:55;;;;;;;4.450001;4;;;;;;;7.39;100;93665.34;;;;
2020/09/26 01:15:56;;;;;;;4.450001;4;;;;;;;7.39;100;93665.34;;;;
2020/09/26 01:16:56;;;;;;;4.450001;4;;;;;;;7.39;100;93665.34;;;;
2020/09/26 01:17:57;;;;;;;4.450001;4;;;;;;;7.39;100;93665.34;;;;
2020/09/26 01:18:59;;;;;;;4.450001;4;;;;;;;7.39;100;93665.34;;;;
2020/09/26 01:19:59;;;;;;;4.450001;4;;;;;;;7.39;100;93665.34;;;;
2020/09/26 01:21:00;;;;;;;4.450001;4;;;;;;;7.39;100;93665.34;;;;
2020/09/26 01:22:00;;;;;;;4.450001;4;;;;;;;7.39;100;93665.34;;;;
2020/09/26 01:23:01;;;;;;;4.450001;4;;;;;;;7.39;100;93665.34;;;;
2020/09/26 01:24:02;;;;;;;4.450001;4;;;;;;;7.39;100;93665.34;;;;
2020/09/26 01:25:03;;;;;;;4.55;4.149999;;;;;;;7.37;100;93660.38;;;;
2020/09/26 01:26:03;;;;;;;4.55;4.149999;;;;;;;7.37;100;93660.38;;;;
2020/09/26 01:27:04;;;;;;;4.55;4.149999;;;;;;;7.37;100;93660.38;;;;
2020/09/26 01:28:04;;;;;;;4.55;4.149999;;;;;;;7.37;100;93660.38;;;;
2020/09/26 01:29:04;;;;;;;4.55;4.149999;;;;;;;7.37;100;93660.38;;;;
2020/09/26 01:30:05;;;;;;;4.55;4.149999;;;;;;;7.37;100;93660.38;;;;
2020/09/26 01:31:05;;;;;;;4.55;4.149999;;;;;;;7.37;100;93660.38;;;;
2020/09/26 01:32:06;;;;;;;4.55;4.149999;;;;;;;7.37;100;93660.38;;;;
2020/09/26 01:33:07;;;;;;;4.55;4.149999;;;;;;;7.37;100;93660.38;;;;
2020/09/26 01:34:07;;;;;;;4.55;4.149999;;;;;;;7.37;100;93660.38;;;;
2020/09/26 01:35:08;;;;;;;4.55;4.149999;;;;;;;7.37;100;93660.38;;;;
2020/09/26 01:36:08;;;;;;;4.8;4.25;;;;;;;7.4;100;93673.69;;;;
2020/09/26 01:37:09;;;;;;;4.8;4.25;;;;;;;7.4;100;93673.69;;;;
2020/09/26 01:38:10;;;;;;;4.8;4.25;;;;;;;7.4;100;93673.69;;;;
2020/09/26 01:39:10;;;;;;;4.8;4.25;;;;;;;7.4;100;93673.69;;;;
2020/09/26 01:40:11;;;;;;;4.8;4.25;;;;;;;7.4;100;93673.69;;;;
2020/09/26 01:41:11;;;;;;;4.8;4.25;;;;;;;7.4;100;93673.69;;;;
2020/09/26 01:42:13;;;;;;;4.8;4.25;;;;;;;7.4;100;93673.69;;;;
2020/09/26 01:43:14;;;;;;;4.8;4.25;;;;;;;7.4;100;93673.69;;;;
2020/09/26 01:44:14;;;;;;;4.8;4.25;;;;;;;7.4;100;93673.69;;;;
2020/09/26 01:45:15;;;;;;;4.8;4.25;;;;;;;7.4;100;93673.69;;;;
2020/09/26 01:46:15;;;;;;;5.35;4.85;;;;;;;7.4;100;93670.59;;;;
2020/09/26 01:47:16;;;;;;;5.35;4.85;;;;;;;7.4;100;93670.59;;;;
2020/09/26 01:48:16;;;;;;;5.35;4.85;;;;;;;7.4;100;93670.59;;;;
2020/09/26 01:49:16;;;;;;;5.35;4.85;;;;;;;7.4;100;93670.59;;;;
2020/09/26 01:50:17;;;;;;;5.35;4.85;;;;;;;7.4;100;93670.59;;;;
2020/09/26 01:51:17;;;;;;;5.35;4.85;;;;;;;7.4;100;93670.59;;;;
2020/09/26 01:52:18;;;;;;;5.35;4.85;;;;;;;7.4;100;93670.59;;;;
2020/09/26 01:53:18;;;;;;;5.35;4.85;;;;;;;7.4;100;93670.59;;;;
2020/09/26 01:54:19;;;;;;;5.35;4.85;;;;;;;7.4;100;93670.59;;;;
2020/09/26 01:55:19;;;;;;;5.35;4.85;;;;;;;7.4;100;93670.59;;;;
2020/09/26 01:56:20;;;;;;;5.35;4.85;;;;;;;7.4;100;93670.59;;;;
2020/09/26 01:57:21;;;;;;;4.8;4.35;;;;;;;7.46;100;93666.49;;;;
2020/09/26 01:58:21;;;;;;;4.8;4.35;;;;;;;7.46;100;93666.49;;;;
2020/09/26 01:59:23;;;;;;;4.8;4.35;;;;;;;7.46;100;93666.49;;;;
2020/09/26 02:00:23;;;;;;;4.8;4.35;;;;;;;7.46;100;93666.49;;;;
2020/09/26 02:01:24;;;;;;;4.8;4.35;;;;;;;7.46;100;93666.49;;;;
2020/09/26 02:02:24;;;;;;;4.8;4.35;;;;;;;7.46;100;93666.49;;;;
2020/09/26 02:03:25;;;;;;;4.8;4.35;;;;;;;7.46;100;93666.49;;;;
2020/09/26 02:04:25;;;;;;;4.8;4.35;;;;;;;7.46;100;93666.49;;;;
2020/09/26 02:05:26;;;;;;;4.8;4.35;;;;;;;7.46;100;93666.49;;;;
2020/09/26 02:06:26;;;;;;;4.8;4.35;;;;;;;7.46;100;93666.49;;;;
2020/09/26 02:07:27;;;;;;;4.349999;3.95;;;;;;;7.47;100;93672.64;;;;
2020/09/26 02:08:27;;;;;;;4.349999;3.95;;;;;;;7.47;100;93672.64;;;;
2020/09/26 02:09:28;;;;;;;4.349999;3.95;;;;;;;7.47;100;93672.64;;;;
2020/09/26 02:10:29;;;;;;;4.349999;3.95;;;;;;;7.47;100;93672.64;;;;
2020/09/26 02:11:29;;;;;;;4.349999;3.95;;;;;;;7.47;100;93672.64;;;;
2020/09/26 02:12:29;;;;;;;4.349999;3.95;;;;;;;7.47;100;93672.64;;;;
2020/09/26 02:13:30;;;;;;;4.349999;3.95;;;;;;;7.47;100;93672.64;;;;
2020/09/26 02:14:31;;;;;;;4.349999;3.95;;;;;;;7.47;100;93672.64;;;;
2020/09/26 02:15:31;;;;;;;4.349999;3.95;;;;;;;7.47;100;93672.64;;;;
2020/09/26 02:16:32;;;;;;;4.349999;3.95;;;;;;;7.47;100;93672.64;;;;
2020/09/26 02:17:32;;;;;;;4.349999;3.95;;;;;;;7.47;100;93672.64;;;;
2020/09/26 02:18:33;;;;;;;3.55;3.25;;;;;;;7.5;100;93669.87;;;;
2020/09/26 02:19:33;;;;;;;3.55;3.25;;;;;;;7.5;100;93669.87;;;;
2020/09/26 02:20:34;;;;;;;3.55;3.25;;;;;;;7.5;100;93669.87;;;;
2020/09/26 02:21:34;;;;;;;3.55;3.25;;;;;;;7.5;100;93669.87;;;;
2020/09/26 02:22:35;;;;;;;3.55;3.25;;;;;;;7.5;100;93669.87;;;;
2020/09/26 02:23:35;;;;;;;3.55;3.25;;;;;;;7.5;100;93669.87;;;;
2020/09/26 02:24:36;;;;;;;3.55;3.25;;;;;;;7.5;100;93669.87;;;;
2020/09/26 02:25:36;;;;;;;3.55;3.25;;;;;;;7.5;100;93669.87;;;;
2020/09/26 02:26:37;;;;;;;3.55;3.25;;;;;;;7.5;100;93669.87;;;;
2020/09/26 02:27:38;;;;;;;3.55;3.25;;;;;;;7.5;100;93669.87;;;;
2020/09/26 02:28:38;;;;;;;3.55;3.25;;;;;;;7.5;100;93669.87;;;;
2020/09/26 02:29:39;;;;;;;2.900001;2.7;;;;;;;7.42;100;93657.72;;;;
2020/09/26 02:30:40;;;;;;;2.900001;2.7;;;;;;;7.42;100;93657.72;;;;
2020/09/26 02:31:40;;;;;;;2.900001;2.7;;;;;;;7.42;100;93657.72;;;;
2020/09/26 02:32:41;;;;;;;2.900001;2.7;;;;;;;7.42;100;93657.72;;;;
2020/09/26 02:33:41;;;;;;;2.900001;2.7;;;;;;;7.42;100;93657.72;;;;
2020/09/26 02:34:42;;;;;;;2.900001;2.7;;;;;;;7.42;100;93657.72;;;;
2020/09/26 02:35:42;;;;;;;2.900001;2.7;;;;;;;7.42;100;93657.72;;;;
2020/09/26 02:36:43;;;;;;;2.900001;2.7;;;;;;;7.42;100;93657.72;;;;
2020/09/26 02:37:43;;;;;;;2.900001;2.7;;;;;;;7.42;100;93657.72;;;;
2020/09/26 02:38:44;;;;;;;2.900001;2.7;;;;;;;7.42;100;93657.72;;;;
2020/09/26 02:39:44;;;;;;;2.6;2.4;;;;;;;7.4;100;93651.79;;;;
2020/09/26 02:40:45;;;;;;;2.6;2.4;;;;;;;7.4;100;93651.79;;;;
2020/09/26 02:41:45;;;;;;;2.6;2.4;;;;;;;7.4;100;93651.79;;;;
2020/09/26 02:42:46;;;;;;;2.6;2.4;;;;;;;7.4;100;93651.79;;;;
2020/09/26 02:43:46;;;;;;;2.6;2.4;;;;;;;7.4;100;93651.79;;;;
2020/09/26 02:44:47;;;;;;;2.6;2.4;;;;;;;7.4;100;93651.79;;;;
2020/09/26 02:45:47;;;;;;;2.6;2.4;;;;;;;7.4;100;93651.79;;;;
2020/09/26 02:46:48;;;;;;;2.6;2.4;;;;;;;7.4;100;93651.79;;;;
2020/09/26 02:47:48;;;;;;;2.6;2.4;;;;;;;7.4;100;93651.79;;;;
2020/09/26 02:48:49;;;;;;;2.6;2.4;;;;;;;7.4;100;93651.79;;;;
2020/09/26 02:49:49;;;;;;;2.6;2.4;;;;;;;7.4;100;93651.79;;;;
2020/09/26 02:50:50;;;;;;;3.05;2.85;;;;;;;7.32;100;93646.09;;;;
2020/09/26 02:51:50;;;;;;;3.05;2.85;;;;;;;7.32;100;93646.09;;;;
2020/09/26 02:52:51;;;;;;;3.05;2.85;;;;;;;7.32;100;93646.09;;;;
2020/09/26 02:53:51;;;;;;;3.05;2.85;;;;;;;7.32;100;93646.09;;;;
2020/09/26 02:54:52;;;;;;;3.05;2.85;;;;;;;7.32;100;93646.09;;;;
2020/09/26 02:55:52;;;;;;;3.05;2.85;;;;;;;7.32;100;93646.09;;;;
2020/09/26 02:56:53;;;;;;;3.05;2.85;;;;;;;7.32;100;93646.09;;;;
2020/09/26 02:57:53;;;;;;;3.05;2.85;;;;;;;7.32;100;93646.09;;;;
2020/09/26 02:58:54;;;;;;;3.05;2.85;;;;;;;7.32;100;93646.09;;;;
2020/09/26 02:59:54;;;;;;;3.05;2.85;;;;;;;7.32;100;93646.09;;;;
2020/09/26 03:00:55;;;;;;;3.2;2.900001;;;;;;;7.3;100;93654;;;;
2020/09/26 03:01:55;;;;;;;3.2;2.900001;;;;;;;7.3;100;93654;;;;
2020/09/26 03:02:56;;;;;;;3.2;2.900001;;;;;;;7.3;100;93654;;;;
2020/09/26 03:03:56;;;;;;;3.2;2.900001;;;;;;;7.3;100;93654;;;;
2020/09/26 03:04:57;;;;;;;3.2;2.900001;;;;;;;7.3;100;93654;;;;
2020/09/26 03:05:58;;;;;;;3.2;2.900001;;;;;;;7.3;100;93654;;;;
2020/09/26 03:07:02;;;;;;;3.2;2.900001;;;;;;;7.3;100;93654;;;;
2020/09/26 03:08:03;;;;;;;3.2;2.900001;;;;;;;7.3;100;93654;;;;
2020/09/26 03:09:03;;;;;;;3.2;2.900001;;;;;;;7.3;100;93654;;;;
2020/09/26 03:10:05;;;;;;;3.2;2.900001;;;;;;;7.3;100;93654;;;;
2020/09/26 03:11:05;;;;;;;3.2;2.900001;;;;;;;7.3;100;93654;;;;
2020/09/26 03:12:06;;;;;;;3.65;3.35;;;;;;;7.24;100;93651.81;;;;
2020/09/26 03:13:06;;;;;;;3.65;3.35;;;;;;;7.24;100;93651.81;;;;
2020/09/26 03:14:07;;;;;;;3.65;3.35;;;;;;;7.24;100;93651.81;;;;
2020/09/26 03:15:10;;;;;;;3.65;3.35;;;;;;;7.24;100;93651.81;;;;
2020/09/26 03:16:11;;;;;;;3.65;3.35;;;;;;;7.24;100;93651.81;;;;
2020/09/26 03:17:17;;;;;;;3.65;3.35;;;;;;;7.24;100;93651.81;;;;
2020/09/26 03:18:17;;;;;;;3.65;3.35;;;;;;;7.24;100;93651.81;;;;
2020/09/26 03:19:18;;;;;;;3.65;3.35;;;;;;;7.24;100;93651.81;;;;
2020/09/26 03:20:18;;;;;;;3.65;3.35;;;;;;;7.24;100;93651.81;;;;
2020/09/26 03:21:19;;;;;;;3.65;3.35;;;;;;;7.24;100;93651.81;;;;
2020/09/26 03:22:19;;;;;;;4;3.6;;;;;;;7.27;100;93668.33;;;;
2020/09/26 03:23:20;;;;;;;4;3.6;;;;;;;7.27;100;93668.33;;;;
2020/09/26 03:24:20;;;;;;;4;3.6;;;;;;;7.27;100;93668.33;;;;
2020/09/26 03:25:21;;;;;;;4;3.6;;;;;;;7.27;100;93668.33;;;;
2020/09/26 03:26:22;;;;;;;4;3.6;;;;;;;7.27;100;93668.33;;;;
2020/09/26 03:27:23;;;;;;;4;3.6;;;;;;;7.27;100;93668.33;;;;
2020/09/26 03:28:23;;;;;;;4;3.6;;;;;;;7.27;100;93668.33;;;;
2020/09/26 03:29:24;;;;;;;4;3.6;;;;;;;7.27;100;93668.33;;;;
2020/09/26 03:30:24;;;;;;;4;3.6;;;;;;;7.27;100;93668.33;;;;
2020/09/26 03:31:25;;;;;;;4;3.6;;;;;;;7.27;100;93668.33;;;;
2020/09/26 03:32:25;;;;;;;4;3.6;;;;;;;7.27;100;93668.33;;;;
2020/09/26 03:33:26;;;;;;;4.100001;3.65;;;;;;;7.21;100;93664.92;;;;
2020/09/26 03:34:26;;;;;;;4.100001;3.65;;;;;;;7.21;100;93664.92;;;;
2020/09/26 03:35:27;;;;;;;4.100001;3.65;;;;;;;7.21;100;93664.92;;;;
2020/09/26 03:36:27;;;;;;;4.100001;3.65;;;;;;;7.21;100;93664.92;;;;
2020/09/26 03:37:27;;;;;;;4.100001;3.65;;;;;;;7.21;100;93664.92;;;;
2020/09/26 03:38:28;;;;;;;4.100001;3.65;;;;;;;7.21;100;93664.92;;;;
2020/09/26 03:39:29;;;;;;;4.100001;3.65;;;;;;;7.21;100;93664.92;;;;
2020/09/26 03:40:29;;;;;;;4.100001;3.65;;;;;;;7.21;100;93664.92;;;;
2020/09/26 03:41:30;;;;;;;4.100001;3.65;;;;;;;7.21;100;93664.92;;;;
2020/09/26 03:42:30;;;;;;;4.100001;3.65;;;;;;;7.21;100;93664.92;;;;
2020/09/26 03:43:31;;;;;;;4.75;3.85;;;;;;;7.25;100;93670.03;;;;
2020/09/26 03:44:32;;;;;;;4.75;3.85;;;;;;;7.25;100;93670.03;;;;
2020/09/26 03:45:32;;;;;;;4.75;3.85;;;;;;;7.25;100;93670.03;;;;
2020/09/26 03:46:33;;;;;;;4.75;3.85;;;;;;;7.25;100;93670.03;;;;
2020/09/26 03:47:33;;;;;;;4.75;3.85;;;;;;;7.25;100;93670.03;;;;
2020/09/26 03:48:34;;;;;;;4.75;3.85;;;;;;;7.25;100;93670.03;;;;
2020/09/26 03:49:34;;;;;;;4.75;3.85;;;;;;;7.25;100;93670.03;;;;
2020/09/26 03:50:35;;;;;;;4.75;3.85;;;;;;;7.25;100;93670.03;;;;
2020/09/26 03:51:39;;;;;;;4.75;3.85;;;;;;;7.25;100;93670.03;;;;
2020/09/26 03:52:39;;;;;;;4.75;3.85;;;;;;;7.25;100;93670.03;;;;
2020/09/26 03:53:40;;;;;;;4.75;3.85;;;;;;;7.25;100;93670.03;;;;
2020/09/26 03:54:40;;;;;;;4.25;3.7;;;;;;;7.21;100;93679.13;;;;
2020/09/26 03:55:48;;;;;;;4.25;3.7;;;;;;;7.21;100;93679.13;;;;
2020/09/26 03:56:49;;;;;;;4.25;3.7;;;;;;;7.21;100;93679.13;;;;
2020/09/26 03:57:57;;;;;;;4.25;3.7;;;;;;;7.21;100;93679.13;;;;
2020/09/26 03:58:58;;;;;;;4.25;3.7;;;;;;;7.21;100;93679.13;;;;
2020/09/26 04:00:09;;;;;;;4.25;3.7;;;;;;;7.21;100;93679.13;;;;
2020/09/26 04:01:10;;;;;;;4.25;3.7;;;;;;;7.21;100;93679.13;;;;
2020/09/26 04:02:11;;;;;;;4.25;3.7;;;;;;;7.21;100;93679.13;;;;
2020/09/26 04:03:12;;;;;;;4.25;3.7;;;;;;;7.21;100;93679.13;;;;
2020/09/26 04:04:22;;;;;;;4.25;3.7;;;;;;;7.21;100;93679.13;;;;
2020/09/26 04:05:23;;;;;;;3.95;3.55;;;;;;;7.22;100;93669.22;;;;
2020/09/26 04:06:33;;;;;;;3.95;3.55;;;;;;;7.22;100;93669.22;;;;
2020/09/26 04:07:34;;;;;;;3.95;3.55;;;;;;;7.22;100;93669.22;;;;
2020/09/26 04:08:43;;;;;;;3.95;3.55;;;;;;;7.22;100;93669.22;;;;
2020/09/26 04:09:43;;;;;;;3.95;3.55;;;;;;;7.22;100;93669.22;;;;
2020/09/26 04:10:44;;;;;;;3.95;3.55;;;;;;;7.22;100;93669.22;;;;
2020/09/26 04:11:44;;;;;;;3.95;3.55;;;;;;;7.22;100;93669.22;;;;
2020/09/26 04:12:45;;;;;;;3.95;3.55;;;;;;;7.22;100;93669.22;;;;
2020/09/26 04:13:45;;;;;;;3.95;3.55;;;;;;;7.22;100;93669.22;;;;
2020/09/26 04:14:46;;;;;;;3.95;3.55;;;;;;;7.22;100;93669.22;;;;
2020/09/26 04:15:46;;;;;;;4.400001;4;;;;;;;7.18;100;93666.24;;;;
2020/09/26 04:17:19;;;;;;;4.400001;4;;;;;;;7.18;100;93666.24;;;;
2020/09/26 04:18:20;;;;;;;4.400001;4;;;;;;;7.18;100;93666.24;;;;
2020/09/26 04:19:24;;;;;;;4.400001;4;;;;;;;7.18;100;93666.24;;;;
2020/09/26 04:20:26;;;;;;;4.400001;4;;;;;;;7.18;100;93666.24;;;;
2020/09/26 04:21:26;;;;;;;4.400001;4;;;;;;;7.18;100;93666.24;;;;
2020/09/26 04:22:26;;;;;;;4.400001;4;;;;;;;7.18;100;93666.24;;;;
2020/09/26 04:23:29;;;;;;;4.400001;4;;;;;;;7.18;100;93666.24;;;;
2020/09/26 04:24:32;;;;;;;4.400001;4;;;;;;;7.18;100;93666.24;;;;
2020/09/26 04:25:32;;;;;;;4.400001;4;;;;;;;7.18;100;93666.24;;;;
2020/09/26 04:26:33;;;;;;;3.75;3.400001;;;;;;;7.18;100;93658.7;;;;
2020/09/26 04:27:34;;;;;;;3.75;3.400001;;;;;;;7.18;100;93658.7;;;;
2020/09/26 04:28:34;;;;;;;3.75;3.400001;;;;;;;7.18;100;93658.7;;;;
2020/09/26 04:29:35;;;;;;;3.75;3.400001;;;;;;;7.18;100;93658.7;;;;
2020/09/26 04:30:35;;;;;;;3.75;3.400001;;;;;;;7.18;100;93658.7;;;;
2020/09/26 04:31:36;;;;;;;3.75;3.400001;;;;;;;7.18;100;93658.7;;;;
2020/09/26 04:32:37;;;;;;;3.75;3.400001;;;;;;;7.18;100;93658.7;;;;
2020/09/26 04:33:37;;;;;;;3.75;3.400001;;;;;;;7.18;100;93658.7;;;;
2020/09/26 04:34:38;;;;;;;3.75;3.400001;;;;;;;7.18;100;93658.7;;;;
2020/09/26 04:35:38;;;;;;;3.75;3.400001;;;;;;;7.18;100;93658.7;;;;
2020/09/26 04:36:57;;;;;;;4.2;3.6;;;;;;;7.15;100;93650.76;;;;
2020/09/26 04:38:05;;;;;;;4.2;3.6;;;;;;;7.15;100;93650.76;;;;
2020/09/26 04:39:09;;;;;;;4.2;3.6;;;;;;;7.15;100;93650.76;;;;
2020/09/26 04:40:09;;;;;;;4.2;3.6;;;;;;;7.15;100;93650.76;;;;
2020/09/26 04:41:39;;;;;;;4.2;3.6;;;;;;;7.15;100;93650.76;;;;
2020/09/26 04:42:40;;;;;;;4.2;3.6;;;;;;;7.15;100;93650.76;;;;
2020/09/26 04:43:40;;;;;;;4.2;3.6;;;;;;;7.15;100;93650.76;;;;
2020/09/26 04:44:44;;;;;;;4.2;3.6;;;;;;;7.15;100;93650.76;;;;
2020/09/26 04:45:45;;;;;;;4.2;3.6;;;;;;;7.15;100;93650.76;;;;
2020/09/26 04:46:46;;;;;;;4.2;3.6;;;;;;;7.15;100;93650.76;;;;
2020/09/26 04:47:47;;;;;;;3.400001;3;;;;;;;7.18;100;93651.99;;;;
2020/09/26 04:48:48;;;;;;;3.400001;3;;;;;;;7.18;100;93651.99;;;;
2020/09/26 04:49:48;;;;;;;3.400001;3;;;;;;;7.18;100;93651.99;;;;
2020/09/26 04:50:49;;;;;;;3.400001;3;;;;;;;7.18;100;93651.99;;;;
2020/09/26 04:51:49;;;;;;;3.400001;3;;;;;;;7.18;100;93651.99;;;;
2020/09/26 04:52:49;;;;;;;3.400001;3;;;;;;;7.18;100;93651.99;;;;
2020/09/26 04:54:24;;;;;;;3.400001;3;;;;;;;7.18;100;93651.99;;;;
2020/09/26 04:55:24;;;;;;;3.400001;3;;;;;;;7.18;100;93651.99;;;;
2020/09/26 04:56:28;;;;;;;3.400001;3;;;;;;;7.18;100;93651.99;;;;
2020/09/26 04:57:29;;;;;;;3.400001;3;;;;;;;7.18;100;93651.99;;;;
2020/09/26 04:58:29;;;;;;;3.3;3;;;;;;;7.18;100;93647.97;;;;
2020/09/26 04:59:30;;;;;;;3.3;3;;;;;;;7.18;100;93647.97;;;;
2020/09/26 05:00:30;;;;;;;3.3;3;;;;;;;7.18;100;93647.97;;;;
2020/09/26 05:01:31;;;;;;;3.3;3;;;;;;;7.18;100;93647.97;;;;
2020/09/26 05:02:33;;;;;;;3.3;3;;;;;;;7.18;100;93647.97;;;;
2020/09/26 05:03:34;;;;;;;3.3;3;;;;;;;7.18;100;93647.97;;;;
2020/09/26 05:04:35;;;;;;;3.3;3;;;;;;;7.18;100;93647.97;;;;
2020/09/26 05:05:39;;;;;;;3.3;3;;;;;;;7.18;100;93647.97;;;;
2020/09/26 05:06:40;;;;;;;3.3;3;;;;;;;7.18;100;93647.97;;;;
2020/09/26 05:07:42;;;;;;;3.3;3;;;;;;;7.18;100;93647.97;;;;
2020/09/26 05:08:52;;;;;;;3.45;2.55;;;;;;;7.22;100;93664.67;;;;
2020/09/26 05:09:52;;;;;;;3.45;2.55;;;;;;;7.22;100;93664.67;;;;
2020/09/26 05:10:53;;;;;;;3.45;2.55;;;;;;;7.22;100;93664.67;;;;
2020/09/26 05:11:53;;;;;;;3.45;2.55;;;;;;;7.22;100;93664.67;;;;
2020/09/26 05:12:54;;;;;;;3.45;2.55;;;;;;;7.22;100;93664.67;;;;
2020/09/26 05:13:59;;;;;;;3.45;2.55;;;;;;;7.22;100;93664.67;;;;
2020/09/26 05:14:59;;;;;;;3.45;2.55;;;;;;;7.22;100;93664.67;;;;
2020/09/26 05:16:04;;;;;;;3.45;2.55;;;;;;;7.22;100;93664.67;;;;
2020/09/26 05:17:04;;;;;;;3.45;2.55;;;;;;;7.22;100;93664.67;;;;
2020/09/26 05:18:05;;;;;;;3.45;2.55;;;;;;;7.22;100;93664.67;;;;
2020/09/26 05:19:05;;;;;;;3.45;2.55;;;;;;;7.22;100;93664.67;;;;
2020/09/26 05:20:08;;;;;;;3.45;3.1;;;;;;;7.2;100;93654.3;;;;
2020/09/26 05:21:09;;;;;;;3.45;3.1;;;;;;;7.2;100;93654.3;;;;
2020/09/26 05:22:16;;;;;;;3.45;3.1;;;;;;;7.2;100;93654.3;;;;
2020/09/26 05:23:16;;;;;;;3.45;3.1;;;;;;;7.2;100;93654.3;;;;
2020/09/26 05:24:17;;;;;;;3.45;3.1;;;;;;;7.2;100;93654.3;;;;
2020/09/26 05:25:18;;;;;;;3.45;3.1;;;;;;;7.2;100;93654.3;;;;
2020/09/26 05:26:18;;;;;;;3.45;3.1;;;;;;;7.2;100;93654.3;;;;
2020/09/26 05:27:19;;;;;;;3.45;3.1;;;;;;;7.2;100;93654.3;;;;
2020/09/26 05:28:23;;;;;;;3.45;3.1;;;;;;;7.2;100;93654.3;;;;
2020/09/26 05:29:24;;;;;;;3.45;3.1;;;;;;;7.2;100;93654.3;;;;
2020/09/26 05:30:27;;;;;;;3.2;3;;;;;;;7.24;100;93657.7;;;;
2020/09/26 05:31:27;;;;;;;3.2;3;;;;;;;7.24;100;93657.7;;;;
2020/09/26 05:32:33;;;;;;;3.2;3;;;;;;;7.24;100;93657.7;;;;
2020/09/26 05:33:34;;;;;;;3.2;3;;;;;;;7.24;100;93657.7;;;;
2020/09/26 05:34:34;;;;;;;3.2;3;;;;;;;7.24;100;93657.7;;;;
2020/09/26 05:35:35;;;;;;;3.2;3;;;;;;;7.24;100;93657.7;;;;
2020/09/26 05:36:38;;;;;;;3.2;3;;;;;;;7.24;100;93657.7;;;;
2020/09/26 05:37:40;;;;;;;3.2;3;;;;;;;7.24;100;93657.7;;;;
2020/09/26 05:38:40;;;;;;;3.2;3;;;;;;;7.24;100;93657.7;;;;
2020/09/26 05:39:41;;;;;;;3.2;3;;;;;;;7.24;100;93657.7;;;;
2020/09/26 05:40:42;;;;;;;3.2;3;;;;;;;7.24;100;93657.7;;;;
2020/09/26 05:41:42;;;;;;;2.6;2.4;;;;;;;7.22;100;93645.87;;;;
2020/09/26 05:42:43;;;;;;;2.6;2.4;;;;;;;7.22;100;93645.87;;;;
2020/09/26 05:43:43;;;;;;;2.6;2.4;;;;;;;7.22;100;93645.87;;;;
2020/09/26 05:45:00;;;;;;;2.6;2.4;;;;;;;7.22;100;93645.87;;;;
2020/09/26 05:46:01;;;;;;;2.6;2.4;;;;;;;7.22;100;93645.87;;;;
2020/09/26 05:47:11;;;;;;;2.6;2.4;;;;;;;7.22;100;93645.87;;;;
2020/09/26 05:48:12;;;;;;;2.6;2.4;;;;;;;7.22;100;93645.87;;;;
2020/09/26 05:49:15;;;;;;;2.6;2.4;;;;;;;7.22;100;93645.87;;;;
2020/09/26 05:50:16;;;;;;;2.6;2.4;;;;;;;7.22;100;93645.87;;;;
2020/09/26 05:51:16;;;;;;;2.6;2.4;;;;;;;7.22;100;93645.87;;;;
2020/09/26 05:52:26;;;;;;;2.6;2.2;;;;;;;7.26;100;93631.82;;;;
2020/09/26 05:53:32;;;;;;;2.6;2.2;;;;;;;7.26;100;93631.82;;;;
2020/09/26 05:54:40;;;;;;;2.6;2.2;;;;;;;7.26;100;93631.82;;;;
2020/09/26 05:55:44;;;;;;;2.6;2.2;;;;;;;7.26;100;93631.82;;;;
2020/09/26 05:56:44;;;;;;;2.6;2.2;;;;;;;7.26;100;93631.82;;;;
2020/09/26 05:57:45;;;;;;;2.6;2.2;;;;;;;7.26;100;93631.82;;;;
2020/09/26 05:58:55;;;;;;;2.6;2.2;;;;;;;7.26;100;93631.82;;;;
2020/09/26 05:59:56;;;;;;;2.6;2.2;;;;;;;7.26;100;93631.82;;;;
2020/09/26 06:00:56;;;;;;;2.6;2.2;;;;;;;7.26;100;93631.82;;;;
2020/09/26 06:01:57;;;;;;;2.6;2.2;;;;;;;7.26;100;93631.82;;;;
2020/09/26 06:02:58;;;;;;;2.5;2.3;;;;;;;7.23;100;93624.67;;;;
2020/09/26 06:04:00;;;;;;;2.5;2.3;;;;;;;7.23;100;93624.67;;;;
2020/09/26 06:05:15;;;;;;;2.5;2.3;;;;;;;7.23;100;93624.67;;;;
2020/09/26 06:06:16;;;;;;;2.5;2.3;;;;;;;7.23;100;93624.67;;;;
2020/09/26 06:07:24;;;;;;;2.5;2.3;;;;;;;7.23;100;93624.67;;;;
2020/09/26 06:08:29;;;;;;;2.5;2.3;;;;;;;7.23;100;93624.67;;;;
2020/09/26 06:09:30;;;;;;;2.5;2.3;;;;;;;7.23;100;93624.67;;;;
2020/09/26 06:10:30;;;;;;;2.5;2.3;;;;;;;7.23;100;93624.67;;;;
2020/09/26 06:11:30;;;;;;;2.5;2.3;;;;;;;7.23;100;93624.67;;;;
2020/09/26 06:12:32;;;;;;;2.5;2.3;;;;;;;7.23;100;93624.67;;;;
2020/09/26 06:13:33;;;;;;;2.65;2.45;;;;;;;7.38;100;93619.44;;;;
2020/09/26 06:14:33;;;;;;;2.65;2.45;;;;;;;7.38;100;93619.44;;;;
2020/09/26 06:15:34;;;;;;;2.65;2.45;;;;;;;7.38;100;93619.44;;;;
2020/09/26 06:16:34;;;;;;;2.65;2.45;;;;;;;7.38;100;93619.44;;;;
2020/09/26 06:17:35;;;;;;;2.65;2.45;;;;;;;7.38;100;93619.44;;;;
2020/09/26 06:18:36;;;;;;;2.65;2.45;;;;;;;7.38;100;93619.44;;;;
2020/09/26 06:19:36;;;;;;;2.65;2.45;;;;;;;7.38;100;93619.44;;;;
2020/09/26 06:20:37;;;;;;;2.65;2.45;;;;;;;7.38;100;93619.44;;;;
2020/09/26 06:21:37;;;;;;;2.65;2.45;;;;;;;7.38;100;93619.44;;;;